Home > Products > Valid Products > MTR

000
SAUS46 KMFR 030834
MTRSXT
SPECI KSXT 030833Z AUTO 09003KT 1SM HZ VV014 20/09 A3003 RMK AO2
T02000094





000
SAUS46 KMFR 030757
MTRSXT
METAR KSXT 030756Z AUTO 05003KT 1 1/4SM HZ FEW013 BKN075 BKN090
20/09 A3003 RMK AO2 SLP113 T02000094 402390183





000
SAUS46 KMFR 030714
MTRSXT
SPECI KSXT 030713Z AUTO 00000KT 1 1/2SM HZ FEW017 OVC080 20/10 A3003
RMK AO2 T02000100





000
SAUS46 KMFR 030657
MTRSXT
METAR KSXT 030656Z AUTO 35003KT 2SM HZ OVC080 19/11 A3004 RMK AO2
RAB19E37 SLP117 P0000 T01940106





000
SAUS46 KMFR 030657
MTRSXT
METAR KSXT 030656Z AUTO 35003KT 2SM HZ OVC080 19/11 A3004 RMK AO2
RAB19E37 SLP117 P0000 T01940106





000
SAUS46 KMFR 030647
MTRSXT
SPECI KSXT 030646Z AUTO 00000KT 2SM HZ BKN080 OVC095 19/11 A3004 RMK
AO2 RAB19E37 P0000 T01940106





000
SAUS46 KMFR 030635
MTRSXT
SPECI KSXT 030634Z AUTO 00000KT 1 3/4SM -RA BKN080 OVC100 20/11
A3004 RMK AO2 RAB19 P0000 T02000106





000
SAUS46 KMFR 030635
MTRSXT
SPECI KSXT 030634Z AUTO 00000KT 1 3/4SM -RA BKN080 OVC100 20/11
A3004 RMK AO2 RAB19 P0000 T02000106





000
SAUS46 KMFR 030557
MTRSXT
METAR KSXT 030556Z AUTO 14003KT 2SM HZ SCT028 OVC080 20/10 A3005 RMK
AO2 SLP121 T02000100 10222 20189 53008





000
SAUS46 KMFR 030530
MTRSXT
SPECI KSXT 030529Z AUTO 10003KT 2SM HZ SCT021 OVC075 19/10 A3005 RMK
AO2 T01890100





000
SAUS46 KMFR 030530
MTRSXT
SPECI KSXT 030529Z AUTO 10003KT 2SM HZ SCT021 OVC075 19/10 A3005 RMK
AO2 T01890100





000
SAUS46 KMFR 030523
MTRSXT
SPECI KSXT 030522Z AUTO 13003KT 1 3/4SM HZ BKN021 OVC075 19/10 A3005
RMK AO2 T01940100





000
SAUS46 KMFR 030523
MTRSXT
SPECI KSXT 030522Z AUTO 13003KT 1 3/4SM HZ BKN021 OVC075 19/10 A3005
RMK AO2 T01940100





000
SAUS46 KMFR 030457
MTRSXT
METAR KSXT 030456Z AUTO 00000KT 2SM HZ OVC018 21/09 A3003 RMK AO2
SLP117 T02060094





000
SAUS46 KMFR 030444
MTRSXT
SPECI KSXT 030442Z AUTO 23003KT 2 1/2SM HZ OVC016 20/10 A3003 RMK
AO2 T02000100





000
SAUS46 KMFR 030444
MTRSXT
SPECI KSXT 030442Z AUTO 23003KT 2 1/2SM HZ OVC016 20/10 A3003 RMK
AO2 T02000100





000
SAUS46 KMFR 030432
MTRSXT
SPECI KSXT 030431Z AUTO 24004KT 3SM HZ BKN015 20/10 A3003 RMK AO2
T02000100





000
SAUS46 KMFR 030419
MTRSXT
SPECI KSXT 030418Z AUTO 24006KT 3SM HZ SCT014 20/09 A3003 RMK AO2
T02000094





000
SAUS46 KMFR 030419
MTRSXT
SPECI KSXT 030418Z AUTO 24006KT 3SM HZ SCT014 20/09 A3003 RMK AO2
T02000094





000
SAUS46 KMFR 030357
MTRSXT
METAR KSXT 030356Z AUTO 22007KT 2 1/2SM HZ CLR 20/10 A3002 RMK AO2
SLP113 T02000100





000
SAUS46 KMFR 030341
MTRSXT
SPECI KSXT 030340Z AUTO 22007KT 2SM HZ CLR 20/11 A3002 RMK AO2
T02000106





000
SAUS46 KMFR 030329
MTRSXT
SPECI KSXT 030328Z AUTO 21007KT 1 1/4SM HZ SCT016 20/11 A3002 RMK
AO2 T02000106





000
SAUS46 KMFR 030257
MTRSXT
METAR KSXT 030256Z AUTO VRB03KT 1SM HZ VV018 20/09 A3002 RMK AO2
SLP112 T02000094 55007





000
SAUS46 KMFR 030236
MTRSXT
SPECI KSXT 030234Z AUTO VRB03KT 1SM HZ VV016 21/09 A3002 RMK AO2
T02110089





000
SAUS46 KMFR 030226
MTRSXT
SPECI KSXT 030224Z AUTO 08003KT 1SM HZ VV014 21/09 A3001 RMK AO2
T02060094





000
SAUS46 KMFR 030226
MTRSXT
SPECI KSXT 030224Z AUTO 08003KT 1SM HZ VV014 21/09 A3001 RMK AO2
T02060094





000
SAUS46 KMFR 030200
MTRMHS
METAR KMHS 030156Z AUTO VRB04KT 8SM OVC110 27/10 A2998 RMK AO2
SLP132 T02720100





000
SAUS46 KMFR 030157
MTRSXT
METAR KSXT 030156Z AUTO 01003KT 1SM HZ VV015 20/09 A3002 RMK AO2
SLP112 T02000094





000
SAUS46 KMFR 030140
MTRSXT
SPECI KSXT 030138Z AUTO 01007KT 1SM HZ VV018 21/08 A3002 RMK AO2
T02060083





000
SAUS46 KMFR 030057
MTRSXT
METAR KSXT 030056Z AUTO 01010KT 1SM HZ CLR 20/10 A3002 RMK AO2
SLP113 T02000100





000
SAUS46 KMFR 030030
MTRSXT
SPECI KSXT 030028Z AUTO 01008KT 1 1/4SM HZ CLR 22/11 A3003 RMK AO2
T02170111





000
SAUS46 KMFR 030019
MTRSXT
SPECI KSXT 030018Z AUTO 01005KT 1 1/2SM HZ CLR 22/12 A3003 RMK AO2
T02220117





000
SAUS46 KMFR 030019
MTRSXT
SPECI KSXT 030018Z AUTO 01005KT 1 1/2SM HZ CLR 22/12 A3003 RMK AO2
T02220117





000
SAUS46 KMFR 030004
MTRSXT
SPECI KSXT 030003Z AUTO 01007KT 1 1/4SM HZ SCT021 21/10 A3004 RMK
AO2 T02110100





000
SAUS46 KMFR 022358
MTRSXT
METAR KSXT 022356Z AUTO 36007KT 1 1/4SM HZ BKN021 21/09 A3004 RMK
AO2 RAB23E36 SLP121 P0000 60000 T02060094 10239 20189 58007





000
SAUS46 KMFR 022358
MTRSXT
METAR KSXT 022356Z AUTO 36007KT 1 1/4SM HZ BKN021 21/09 A3004 RMK
AO2 RAB23E36 SLP121 P0000 60000 T02060094 10239 20189 58007





000
SAUS46 KMFR 022339
MTRSXT
SPECI KSXT 022338Z AUTO 02008KT 1 1/2SM HZ BKN025 BKN046 OVC100
21/09 A3005 RMK AO2 RAB23E36 P0000 T02060094





000
SAUS46 KMFR 022334
MTRSXT
SPECI KSXT 022333Z AUTO 04009KT 2SM -RA SCT029 BKN060 OVC100 20/11
A3006 RMK AO2 RAB23 P0000 T02000106





000
SAUS46 KMFR 022334
MTRSXT
SPECI KSXT 022333Z AUTO 04009KT 2SM -RA SCT029 BKN060 OVC100 20/11
A3006 RMK AO2 RAB23 P0000 T02000106





000
SAUS46 KMFR 022319
MTRSXT
SPECI KSXT 022317Z AUTO 03006KT 1 3/4SM HZ FEW070 OVC095 21/10 A3006
RMK AO2 T02060100





000
SAUS46 KMFR 022319
MTRSXT
SPECI KSXT 022317Z AUTO 03006KT 1 3/4SM HZ FEW070 OVC095 21/10 A3006
RMK AO2 T02060100





000
SAUS46 KMFR 022257
MTRSXT
METAR KSXT 022256Z AUTO 01011KT 2SM HZ FEW070 FEW080 OVC100 21/10
A3005 RMK AO2 RAE04B24E44 SLP124 P0000 T02060100





000
SAUS46 KMFR 022241
MTRSXT
SPECI KSXT 022240Z AUTO 36011KT 2 1/2SM -RA BKN100 20/11 A3005 RMK
AO2 RAE04B24 P0000 T02000111





000
SAUS46 KMFR 022241
MTRSXT
SPECI KSXT 022240Z AUTO 36011KT 2 1/2SM -RA BKN100 20/11 A3005 RMK
AO2 RAE04B24 P0000 T02000111





000
SAUS46 KMFR 022233
MTRSXT
SPECI KSXT 022232Z AUTO 36010KT 1 3/4SM -RA FEW023 BKN090 OVC110
19/11 A3006 RMK AO2 RAE04B24 P0000 T01940111





000
SAUS46 KMFR 022158
MTRSXT
METAR KSXT 022156Z AUTO 31009KT 1SM -RA FEW046 SCT070 OVC100 21/10
A3007 RMK AO2 RAB28 SLP131 P0000 T02060100





000
SAUS46 KMFR 022146
MTRSXT
SPECI KSXT 022145Z AUTO 31005KT 1SM -RA FEW036 BKN090 OVC110 21/10
A3008 RMK AO2 RAB28 P0000 T02060100





000
SAUS46 KMFR 022058
MTRSXT
METAR KSXT 022056Z AUTO 24006KT 3/4SM HZ SCT018 BKN090 22/09 A3007
RMK AO2 SLP126 T02170094 53005





000
SAUS46 KMFR 022058
MTRSXT
METAR KSXT 022056Z AUTO 24006KT 3/4SM HZ SCT018 BKN090 22/09 A3007
RMK AO2 SLP126 T02170094 53005





000
SAUS46 KMFR 022043
MTRSXT
SPECI KSXT 022042Z AUTO 24004KT 3/4SM HZ VV018 22/11 A3006 RMK AO2
T02170106





000
SAUS46 KMFR 022033
MTRSXT
SPECI KSXT 022032Z AUTO VRB03KT 1 1/2SM HZ OVC018 22/12 A3006 RMK
AO2 T02220117





000
SAUS46 KMFR 022033
MTRSXT
SPECI KSXT 022032Z AUTO VRB03KT 1 1/2SM HZ OVC018 22/12 A3006 RMK
AO2 T02220117





000
SAUS46 KMFR 022024
MTRSXT
SPECI KSXT 022023Z AUTO 20003KT 3/4SM HZ VV018 23/10 A3006 RMK AO2
T02280100





000
SAUS46 KMFR 022024
MTRSXT
SPECI KSXT 022023Z AUTO 20003KT 3/4SM HZ VV018 23/10 A3006 RMK AO2
T02280100





000
SAUS46 KMFR 022012
MTRSXT
SPECI KSXT 022011Z AUTO 22003KT 1SM HZ VV017 24/11 A3005 RMK AO2
T02390111





000
SAUS46 KMFR 022005
MTRSXT
SPECI KSXT 022003Z AUTO 00000KT 1 1/2SM HZ OVC016 23/13 A3005 RMK
AO2 T02330128





000
SAUS46 KMFR 021957
MTRSXT
METAR KSXT 021956Z AUTO 00000KT 1 1/4SM HZ OVC016 23/13 A3005 RMK
AO2 SLP119 T02280128





000
SAUS46 KMFR 021930
MTRSXT
SPECI KSXT 021929Z AUTO 00000KT 1 1/4SM HZ OVC016 23/12 A3005 RMK
AO2 T02280117





000
SAUS46 KMFR 021923
MTRSXT
SPECI KSXT 021921Z AUTO 00000KT 3/4SM HZ VV016 23/11 A3005 RMK AO2
T02280111





000
SAUS46 KMFR 021923
MTRSXT
SPECI KSXT 021921Z AUTO 00000KT 3/4SM HZ VV016 23/11 A3005 RMK AO2
T02280111





000
SAUS46 KMFR 021915
MTRSXT
SPECI KSXT 021914Z AUTO 00000KT 1SM HZ VV015 21/12 A3005 RMK AO2
T02110122





000
SAUS46 KMFR 021857
MTRSXT
METAR KSXT 021856Z AUTO 00000KT 1/2SM HZ VV014 21/11 A3005 RMK AO2
SLP120 T02110111





000
SAUS46 KMFR 021857
MTRSXT
METAR KSXT 021856Z AUTO 00000KT 1/2SM HZ VV014 21/11 A3005 RMK AO2
SLP120 T02110111





000
SAUS46 KMFR 021852
MTRSXT
SPECI KSXT 021851Z AUTO 00000KT 1/2SM HZ VV014 21/10 A3005 RMK AO2





000
SAUS46 KMFR 021852
MTRSXT
SPECI KSXT 021851Z AUTO 00000KT 1/2SM HZ VV014 21/10 A3005 RMK AO2





000
SAUS46 KMFR 021843
MTRSXT
SPECI KSXT 021842Z AUTO 03003KT 1 1/4SM HZ OVC014 21/12 A3005 RMK
AO2 T02110117





000
SAUS46 KMFR 021843
MTRSXT
SPECI KSXT 021842Z AUTO 03003KT 1 1/4SM HZ OVC014 21/12 A3005 RMK
AO2 T02110117





000
SAUS46 KMFR 021834
MTRSXT
SPECI KSXT 021833Z AUTO 00000KT 2SM HZ OVC014 21/13 A3005 RMK AO2
T02110133





000
SAUS46 KMFR 021829
MTRSXT
SPECI KSXT 021827Z AUTO 00000KT 1 1/4SM HZ OVC014 22/13 A3005 RMK
AO2 T02170128





000
SAUS46 KMFR 021821
MTRSXT
SPECI KSXT 021820Z AUTO 00000KT 3/4SM HZ VV014 22/12 A3005 RMK AO2
T02170117





000
SAUS46 KMFR 021757
MTRSXT
METAR KSXT 021756Z AUTO 12004KT 3/4SM HZ VV015 21/11 A3006 RMK AO2
SLP122 60002 T02060111 10211 20183 58001





000
SAUS46 KMFR 021757
MTRSXT
METAR KSXT 021756Z AUTO 12004KT 3/4SM HZ VV015 21/11 A3006 RMK AO2
SLP122 60002 T02060111 10211 20183 58001





000
SAUS46 KMFR 021747
MTRSXT
SPECI KSXT 021746Z AUTO 13006KT 3/4SM HZ VV015 19/10 A3005 RMK AO2
T01940100





000
SAUS46 KMFR 021734
MTRSXT
SPECI KSXT 021733Z AUTO 14006KT 1 1/4SM HZ OVC017 19/10 A3006 RMK
AO2 T01940100





000
SAUS46 KMFR 021715
MTRSXT
SPECI KSXT 021714Z AUTO 00000KT 2 1/2SM HZ OVC015 19/11 A3006 RMK
AO2 T01940106





000
SAUS46 KMFR 021713
MTRSXT
SPECI KSXT 021711Z AUTO 00000KT 1 1/2SM HZ OVC013 19/10 A3006 RMK
AO2 T01940100





000
SAUS46 KMFR 021705
MTRSXT
SPECI KSXT 021704Z AUTO VRB03KT 3/4SM HZ BKN013 BKN110 21/09 A3006
RMK AO2 T02060094





000
SAUS46 KMFR 021705
MTRSXT
SPECI KSXT 021704Z AUTO VRB03KT 3/4SM HZ BKN013 BKN110 21/09 A3006
RMK AO2 T02060094





000
SAUS46 KMFR 021657
MTRSXT
METAR KSXT 021656Z AUTO 16004KT 1/2SM HZ SCT011 BKN070 BKN110 21/10
A3006 RMK AO2 RAE01 SLP123 P0000 T02060100





000
SAUS46 KMFR 021635
MTRSXT
SPECI KSXT 021634Z AUTO 02006KT 1/2SM HZ SCT070 SCT090 BKN110 20/09
A3005 RMK AO2 RAE01 P0000 T02000089





000
SAUS46 KMFR 021635
MTRSXT
SPECI KSXT 021634Z AUTO 02006KT 1/2SM HZ SCT070 SCT090 BKN110 20/09
A3005 RMK AO2 RAE01 P0000 T02000089





000
SAUS46 KMFR 021625
MTRSXT
SPECI KSXT 021623Z AUTO 03004KT 1SM HZ FEW065 BKN110 21/09 A3006 RMK
AO2 RAE01 P0000 T02060089





000
SAUS46 KMFR 021625
MTRSXT
SPECI KSXT 021623Z AUTO 03004KT 1SM HZ FEW065 BKN110 21/09 A3006 RMK
AO2 RAE01 P0000 T02060089





000
SAUS46 KMFR 021606
MTRSXT
SPECI KSXT 021605Z AUTO 04003KT 3/4SM HZ OVC110 20/09 A3006 RMK AO2
RAE01 P0000 T02000089





000
SAUS46 KMFR 021602
MTRSXT
SPECI KSXT 021601Z AUTO 11003KT 1 1/2SM HZ OVC110 20/08 A3006 RMK
AO2 RAE01 P0000 T02000083





000
SAUS46 KMFR 021557
MTRSXT
METAR KSXT 021556Z AUTO VRB03KT 4SM -RA OVC110 20/08 A3007 RMK AO2
RAB52 SLP136 P0000 T02000083





000
SAUS46 KMFR 021557
MTRSXT
METAR KSXT 021556Z AUTO VRB03KT 4SM -RA OVC110 20/08 A3007 RMK AO2
RAB52 SLP136 P0000 T02000083





000
SAUS46 KMFR 021457
MTRSXT
METAR KSXT 021456Z AUTO 12006KT 10SM BKN110 21/08 A3006 RMK AO2
RAE18 SLP120 P0000 60002 T02060078 51007





000
SAUS46 KMFR 021457
MTRSXT
METAR KSXT 021456Z AUTO 12006KT 10SM BKN110 21/08 A3006 RMK AO2
RAE18 SLP120 P0000 60002 T02060078 51007





000
SAUS46 KMFR 021357
MTRSXT
METAR KSXT 021356Z AUTO 07003KT 10SM -RA FEW046 BKN110 19/09 A3005
RMK AO2 RAB16 SLP117 P0002 T01940089





000
SAUS46 KMFR 021257
MTRSXT
METAR KSXT 021256Z AUTO 03007KT 10SM SCT120 20/07 A3005 RMK AO2
SLP112 T02000072





000
SAUS46 KMFR 021157
MTRSXT
METAR KSXT 021156Z AUTO 34005KT 10SM CLR 19/08 A3004 RMK AO2 SLP102
70006 T01940078 10222 20183 58006





000
SAUS46 KMFR 021157
MTRSXT
METAR KSXT 021156Z AUTO 34005KT 10SM CLR 19/08 A3004 RMK AO2 SLP102
70006 T01940078 10222 20183 58006





000
SAUS46 KMFR 021057
MTRSXT
METAR KSXT 021056Z AUTO 35006KT 10SM SCT120 19/09 A3005 RMK AO2
SLP102 T01940089





000
SAUS46 KMFR 020957
MTRSXT
METAR KSXT 020956Z AUTO 36006KT 10SM BKN055 OVC070 19/09 A3005 RMK
AO2 SLP108 T01940094





000
SAUS46 KMFR 020857
MTRSXT
METAR KSXT 020856Z AUTO 33007KT 10SM FEW065 20/09 A3005 RMK AO2
SLP109 T02000094 58005





000
SAUS46 KMFR 020857
MTRSXT
METAR KSXT 020856Z AUTO 33007KT 10SM FEW065 20/09 A3005 RMK AO2
SLP109 T02000094 58005





000
SAUS46 KMFR 020757
MTRSXT
METAR KSXT 020756Z AUTO 33005KT 10SM FEW065 21/09 A3006 RMK AO2
SLP109 T02060089 403280156





000
SAUS46 KMFR 020657
MTRSXT
METAR KSXT 020656Z AUTO VRB05KT 10SM CLR 21/09 A3007 RMK AO2 SLP112
T02110094





000
SAUS46 KMFR 020657
MTRSXT
METAR KSXT 020656Z AUTO VRB05KT 10SM CLR 21/09 A3007 RMK AO2 SLP112
T02110094





000
SAUS46 KMFR 020557
MTRSXT
METAR KSXT 020556Z AUTO 30005KT 8SM FEW070 22/09 A3007 RMK AO2
SLP117 60006 T02170089 10300 20156 51005





000
SAUS46 KMFR 020557
MTRSXT
METAR KSXT 020556Z AUTO 30005KT 8SM FEW070 22/09 A3007 RMK AO2
SLP117 60006 T02170089 10300 20156 51005





000
SAUS46 KMFR 020457
MTRSXT
METAR KSXT 020456Z AUTO 30007KT 9SM OVC065 22/09 A3007 RMK AO2 RAE07
SLP119 P0000 T02170094





000
SAUS46 KMFR 020405
MTRSXT
SPECI KSXT 020403Z AUTO 32012KT 8SM -RA FEW031 BKN110 17/14 A3006
RMK AO2 P0000 T01670139





000
SAUS46 KMFR 020405
MTRSXT
SPECI KSXT 020403Z AUTO 32012KT 8SM -RA FEW031 BKN110 17/14 A3006
RMK AO2 P0000 T01670139





000
SAUS46 KMFR 020357
MTRSXT
METAR KSXT 020356Z AUTO 34007KT 2 1/2SM -RA BR FEW026 FEW095 OVC120
16/15 A3006 RMK AO2 RAB41 SLP127 P0006 T01610150





000
SAUS46 KMFR 020357
MTRSXT
METAR KSXT 020356Z AUTO 34007KT 2 1/2SM -RA BR FEW026 FEW095 OVC120
16/15 A3006 RMK AO2 RAB41 SLP127 P0006 T01610150





000
SAUS46 KMFR 020257
MTRSXT
METAR KSXT 020256Z AUTO 33006KT 7SM OVC047 23/09 A3006 RMK AO2
SLP113 T02330089 55002





000
SAUS46 KMFR 020257
MTRSXT
METAR KSXT 020256Z AUTO 33006KT 7SM OVC047 23/09 A3006 RMK AO2
SLP113 T02330089 55002





000
SAUS46 KMFR 020200
MTRMHS
METAR KMHS 020156Z AUTO 00000KT 10SM CLR 28/14 A2998 RMK AO2 SLP135
T02830144





000
SAUS46 KMFR 020200
MTRMHS
METAR KMHS 020156Z AUTO 00000KT 10SM CLR 28/14 A2998 RMK AO2 SLP135
T02830144





000
SAUS46 KMFR 020157
MTRSXT
METAR KSXT 020156Z AUTO 00000KT 8SM BKN040 25/10 A3005 RMK AO2
SLP109 T02500100





000
SAUS46 KMFR 020057
MTRSXT
METAR KSXT 020056Z AUTO VRB03KT 9SM BKN045 27/11 A3005 RMK AO2
SLP103 T02720106





000
SAUS46 KMFR 020057
MTRSXT
METAR KSXT 020056Z AUTO VRB03KT 9SM BKN045 27/11 A3005 RMK AO2
SLP103 T02720106





000
SAUS46 KMFR 012357
MTRSXT
METAR KSXT 012356Z AUTO VRB04KT 7SM FEW040 30/11 A3006 RMK AO2
SLP105 T03000106 10328 20272 58000





000
SAUS46 KMFR 012331
MTRSXT
SPECI KSXT 012330Z AUTO 33003KT 4SM HZ FEW027 OVC036 29/09 A3006 RMK
AO2 T02940089





000
SAUS46 KMFR 012322
MTRSXT
SPECI KSXT 012320Z AUTO 2 1/2SM HZ FEW027 OVC032 31/09 A3006 RMK AO2
T03060089





000
SAUS46 KMFR 012322
MTRSXT
SPECI KSXT 012320Z AUTO 2 1/2SM HZ FEW027 OVC032 31/09 A3006 RMK AO2
T03060089





000
SAUS46 KMFR 012257
MTRSXT
METAR KSXT 012256Z AUTO VRB03KT 1 1/2SM HZ BKN028 OVC036 32/09 A3006
RMK AO2 SLP104 T03220089





000
SAUS46 KMFR 012257
MTRSXT
METAR KSXT 012256Z AUTO VRB03KT 1 1/2SM HZ BKN028 OVC036 32/09 A3006
RMK AO2 SLP104 T03220089





000
SAUS46 KMFR 012254
MTRSXT
SPECI KSXT 012253Z AUTO VRB03KT 1 1/2SM HZ BKN030 OVC036 32/09 A3006
RMK AO2





000
SAUS46 KMFR 012244
MTRSXT
SPECI KSXT 012243Z AUTO 32004KT 1 1/4SM HZ BKN030 OVC036 32/09 A3006
RMK AO2 T03170094





000
SAUS46 KMFR 012206
MTRSXT
SPECI KSXT 012204Z AUTO VRB04KT 1SM HZ VV020 31/09 A3006 RMK AO2
T03060089





000
SAUS46 KMFR 012158
MTRSXT
METAR KSXT 012156Z AUTO 32005KT 3/4SM HZ OVC021 31/09 A3006 RMK AO2
SLP105 T03060089





000
SAUS46 KMFR 012146
MTRSXT
SPECI KSXT 012145Z AUTO 34004KT 3/4SM HZ OVC021 31/09 A3007 RMK AO2
T03060089





000
SAUS46 KMFR 012119
MTRSXT
SPECI KSXT 012117Z AUTO 00000KT 1 1/4SM HZ OVC021 32/09 A3007 RMK
AO2 T03170089





000
SAUS46 KMFR 012107
MTRSXT
SPECI KSXT 012106Z AUTO 00000KT 1 1/2SM HZ OVC020 31/08 A3008 RMK
AO2 T03060083





000
SAUS46 KMFR 012057
MTRSXT
METAR KSXT 012056Z AUTO 00000KT 2SM HZ BKN020 30/08 A3008 RMK AO2
SLP110 T03000078 58004





000
SAUS46 KMFR 012057
MTRSXT
METAR KSXT 012056Z AUTO 00000KT 2SM HZ BKN020 30/08 A3008 RMK AO2
SLP110 T03000078 58004





000
SAUS46 KMFR 012047
MTRSXT
SPECI KSXT 012046Z AUTO 00000KT 2SM HZ FEW011 BKN018 31/08 A3008 RMK
AO2 T03060083





000
SAUS46 KMFR 012030
MTRSXT
SPECI KSXT 012029Z AUTO 00000KT 2SM HZ BKN013 29/07 A3008 RMK AO2
T02940067





000
SAUS46 KMFR 012030
MTRSXT
SPECI KSXT 012029Z AUTO 00000KT 2SM HZ BKN013 29/07 A3008 RMK AO2
T02940067





000
SAUS46 KMFR 011957
MTRSXT
METAR KSXT 011956Z AUTO 00000KT 1SM HZ VV014 30/08 A3008 RMK AO2
SLP111 T03000078





000
SAUS46 KMFR 011957
MTRSXT
METAR KSXT 011956Z AUTO 00000KT 1SM HZ VV014 30/08 A3008 RMK AO2
SLP111 T03000078





000
SAUS46 KMFR 011953
MTRSXT
SPECI KSXT 011951Z AUTO VRB03KT 1SM HZ VV014 30/08 A3009 RMK AO2





000
SAUS46 KMFR 011953
MTRSXT
SPECI KSXT 011951Z AUTO VRB03KT 1SM HZ VV014 30/08 A3009 RMK AO2





000
SAUS46 KMFR 011941
MTRSXT
SPECI KSXT 011940Z AUTO VRB03KT 3/4SM HZ FEW006 OVC012 31/08 A3009
RMK AO2 T03060078





000
SAUS46 KMFR 011931
MTRSXT
SPECI KSXT 011930Z AUTO 00000KT 1 1/4SM HZ FEW006 OVC012 31/09 A3009
RMK AO2 T03060089





000
SAUS46 KMFR 011923
MTRSXT
SPECI KSXT 011922Z AUTO 00000KT 3/4SM HZ SCT006 OVC010 30/08 A3009
RMK AO2 T03000083





000
SAUS46 KMFR 011906
MTRSXT
SPECI KSXT 011905Z AUTO 13003KT 3/4SM HZ SCT005 OVC009 31/08 A3009
RMK AO2 T03060083





000
SAUS46 KMFR 011906
MTRSXT
SPECI KSXT 011905Z AUTO 13003KT 3/4SM HZ SCT005 OVC009 31/08 A3009
RMK AO2 T03060083





000
SAUS46 KMFR 011857
MTRSXT
METAR KSXT 011856Z AUTO VRB03KT 1/2SM HZ OVC010 29/07 A3009 RMK AO2
SLP115 T02940072





000
SAUS46 KMFR 011857
MTRSXT
METAR KSXT 011856Z AUTO VRB03KT 1/2SM HZ OVC010 29/07 A3009 RMK AO2
SLP115 T02940072





000
SAUS46 KMFR 011852
MTRSXT
SPECI KSXT 011851Z AUTO 00000KT 3/4SM HZ SCT006 OVC011 29/07 A3009
RMK AO2





000
SAUS46 KMFR 011839
MTRSXT
SPECI KSXT 011838Z AUTO VRB03KT 1 1/2SM HZ SCT006 OVC011 28/07 A3009
RMK AO2 T02830072





000
SAUS46 KMFR 011839
MTRSXT
SPECI KSXT 011838Z AUTO VRB03KT 1 1/2SM HZ SCT006 OVC011 28/07 A3009
RMK AO2 T02830072





000
SAUS46 KMFR 011811
MTRSXT
SPECI KSXT 011809Z AUTO 16006KT 1 1/4SM HZ BKN005 28/05 A3010 RMK
AO2 T02780050





000
SAUS46 KMFR 011806
MTRSXT
SPECI KSXT 011805Z AUTO VRB05KT 2SM HZ BKN005 27/06 A3010 RMK AO2
T02720056





000
SAUS46 KMFR 011757
MTRSXT
METAR KSXT 011756Z AUTO 16005KT 4SM HZ FEW005 27/06 A3010 RMK AO2
SLP118 60000 T02720056 10278 20222 55002





000
SAUS46 KMFR 011757
MTRSXT
METAR KSXT 011756Z AUTO 16005KT 4SM HZ FEW005 27/06 A3010 RMK AO2
SLP118 60000 T02720056 10278 20222 55002





000
SAUS46 KMFR 011717
MTRSXT
SPECI KSXT 011716Z AUTO 18008KT 3SM HZ SCT009 27/05 A3009 RMK AO2
T02670050





000
SAUS46 KMFR 011717
MTRSXT
SPECI KSXT 011716Z AUTO 18008KT 3SM HZ SCT009 27/05 A3009 RMK AO2
T02670050





000
SAUS46 KMFR 011705
MTRSXT
SPECI KSXT 011704Z AUTO 16008KT 2 1/2SM HZ FEW009 26/05 A3010 RMK
AO2 T02610050





000
SAUS46 KMFR 011705
MTRSXT
SPECI KSXT 011704Z AUTO 16008KT 2 1/2SM HZ FEW009 26/05 A3010 RMK
AO2 T02610050





000
SAUS46 KMFR 011657
MTRSXT
METAR KSXT 011656Z AUTO 16007KT 2SM HZ BKN009 26/05 A3010 RMK AO2
RAE1559 SLP119 P0000 T02560050





000
SAUS46 KMFR 011652
MTRSXT
SPECI KSXT 011651Z AUTO VRB06KT 1 1/4SM HZ BKN009 26/05 A3010 RMK
AO2 RAE1559 P0000





000
SAUS46 KMFR 011643
MTRSXT
SPECI KSXT 011642Z AUTO 18007KT 3/4SM HZ BKN009 BKN120 24/06 A3010
RMK AO2 RAE1559 P0000 T02440056





000
SAUS46 KMFR 011643
MTRSXT
SPECI KSXT 011642Z AUTO 18007KT 3/4SM HZ BKN009 BKN120 24/06 A3010
RMK AO2 RAE1559 P0000 T02440056





000
SAUS46 KMFR 011635
MTRSXT
SPECI KSXT 011634Z AUTO 18004KT 3/4SM HZ SCT009 BKN120 24/06 A3010
RMK AO2 RAE1559 P0000 T02440056





000
SAUS46 KMFR 011628
MTRSXT
SPECI KSXT 011627Z AUTO 16007KT 1 1/2SM HZ FEW009 BKN110 24/05 A3010
RMK AO2 RAE1559 P0000 T02390050





000
SAUS46 KMFR 011622
MTRSXT
SPECI KSXT 011621Z AUTO 13005KT 2SM HZ BKN110 24/04 A3010 RMK AO2
RAE1559 P0000 T02440044





000
SAUS46 KMFR 011622
MTRSXT
SPECI KSXT 011621Z AUTO 13005KT 2SM HZ BKN110 24/04 A3010 RMK AO2
RAE1559 P0000 T02440044





000
SAUS46 KMFR 011605
MTRSXT
SPECI KSXT 011603Z AUTO 19005KT 1 1/2SM HZ SCT009 BKN100 25/04 A3010
RMK AO2 RAE1559 P0000 T02500044





000
SAUS46 KMFR 011605
MTRSXT
SPECI KSXT 011603Z AUTO 19005KT 1 1/2SM HZ SCT009 BKN100 25/04 A3010
RMK AO2 RAE1559 P0000 T02500044





000
SAUS46 KMFR 011557
MTRSXT
METAR KSXT 011556Z AUTO VRB03G15KT 1/2SM -RA BKN009 OVC110 23/04
A3010 RMK AO2 RAB49 SLP123 P0000 T02330044





000
SAUS46 KMFR 011541
MTRSXT
SPECI KSXT 011540Z AUTO 06007KT 1/4SM HZ BKN006 BKN012 24/04 A3011
RMK AO2 T02440039





000
SAUS46 KMFR 011535
MTRSXT
SPECI KSXT 011534Z AUTO 08005KT 1 1/4SM HZ BKN008 BKN014 24/03 A3011
RMK AO2 VIS 1/2V5 T02440033





000
SAUS46 KMFR 011533
MTRSXT
SPECI KSXT 011532Z AUTO 07006KT 2 1/2SM HZ FEW006 BKN010 BKN017
24/03 A3011 RMK AO2 VIS 3/4V5 T02390028





000
SAUS46 KMFR 011526
MTRSXT
SPECI KSXT 011525Z AUTO 14005KT 5SM HZ BKN012 BKN017 24/03 A3012 RMK
AO2 T02390028





000
SAUS46 KMFR 011526
MTRSXT
SPECI KSXT 011525Z AUTO 14005KT 5SM HZ BKN012 BKN017 24/03 A3012 RMK
AO2 T02390028





000
SAUS46 KMFR 011457
MTRSXT
METAR KSXT 011456Z AUTO 00000KT 6SM HZ SCT120 24/04 A3011 RMK AO2
SLP124 T02390039 53011





000
SAUS46 KMFR 011357
MTRSXT
METAR KSXT 011356Z AUTO 02009KT 8SM CLR 24/02 A3009 RMK AO2 SLP115
T02390022





000
SAUS46 KMFR 011257
MTRSXT
METAR KSXT 011256Z AUTO 06003KT 4SM HZ BKN037 26/02 A3008 RMK AO2
SLP107 T02560017





000
SAUS46 KMFR 011210
MTRSXT
SPECI KSXT 011209Z AUTO 01007KT 6SM HZ BKN034 22/02 A3007 RMK AO2
T02220017





000
SAUS46 KMFR 011210
MTRSXT
SPECI KSXT 011209Z AUTO 01007KT 6SM HZ BKN034 22/02 A3007 RMK AO2
T02220017





000
SAUS46 KMFR 011157
MTRSXT
METAR KSXT 011156Z AUTO 02007KT 2 1/2SM HZ SCT033 24/01 A3008 RMK
AO2 SLP104 T02390011 10256 20228 56006





000
SAUS46 KMFR 011157
MTRSXT
METAR KSXT 011156Z AUTO 02007KT 2 1/2SM HZ SCT033 24/01 A3008 RMK
AO2 SLP104 T02390011 10256 20228 56006





000
SAUS46 KMFR 011058
MTRSXT
METAR KSXT 011056Z AUTO 01009KT 10SM OVC035 23/01 A3008 RMK AO2
SLP106 T02330006





000
SAUS46 KMFR 011058
MTRSXT
METAR KSXT 011056Z AUTO 01009KT 10SM OVC035 23/01 A3008 RMK AO2
SLP106 T02330006





000
SAUS46 KMFR 010957
MTRSXT
METAR KSXT 010956Z AUTO 36011KT 10SM OVC036 23/01 A3008 RMK AO2
SLP108 T02330011





000
SAUS46 KMFR 010857
MTRSXT
METAR KSXT 010856Z AUTO 35010KT 10SM OVC050 24/02 A3009 RMK AO2
SLP115 T02390017 56010





000
SAUS46 KMFR 010757
MTRSXT
METAR KSXT 010756Z AUTO 36009KT 10SM OVC050 25/02 A3010 RMK AO2
SLP116 T02500017 403440239





000
SAUS46 KMFR 010757
MTRSXT
METAR KSXT 010756Z AUTO 36009KT 10SM OVC050 25/02 A3010 RMK AO2
SLP116 T02500017 403440239





000
SAUS46 KMFR 010657
MTRSXT
METAR KSXT 010656Z AUTO 35009KT 10SM BKN048 24/02 A3010 RMK AO2
SLP120 T02440017





000
SAUS46 KMFR 010557
MTRSXT
METAR KSXT 010556Z AUTO 34008KT 10SM SCT060 26/02 A3013 RMK AO2
SLP127 T02560017 10333 20256 50008





000
SAUS46 KMFR 010557
MTRSXT
METAR KSXT 010556Z AUTO 34008KT 10SM SCT060 26/02 A3013 RMK AO2
SLP127 T02560017 10333 20256 50008





000
SAUS46 KMFR 010457
MTRSXT
METAR KSXT 010456Z AUTO 34007G15KT 10SM CLR 27/02 A3014 RMK AO2
SLP131 T02670022





000
SAUS46 KMFR 010457
MTRSXT
METAR KSXT 010456Z AUTO 34007G15KT 10SM CLR 27/02 A3014 RMK AO2
SLP131 T02670022





000
SAUS46 KMFR 010357
MTRSXT
METAR KSXT 010356Z AUTO 02012G19KT 10SM CLR 28/02 A3013 RMK AO2
SLP128 T02780022





000
SAUS46 KMFR 010301
MTRMHS
METAR KMHS 010256Z AUTO 06003KT 10SM CLR 27/12 A3007 RMK AO2 SLP163
T02670117 55005





000
SAUS46 KMFR 010257
MTRSXT
METAR KSXT 010256Z AUTO 35009G15KT 10SM CLR 28/06 A3010 RMK AO2
SLP119 T02780061 56007





000
SAUS46 KMFR 010257
MTRSXT
METAR KSXT 010256Z AUTO 35009G15KT 10SM CLR 28/06 A3010 RMK AO2
SLP119 T02780061 56007





000
SAUS46 KMFR 010157
MTRSXT
METAR KSXT 010156Z AUTO VRB05G15KT 10SM CLR 31/06 A3010 RMK AO2
SLP119 T03060061





000
SAUS46 KMFR 010057
MTRSXT
METAR KSXT 010056Z AUTO VRB05KT 5SM HZ CLR 32/07 A3011 RMK AO2
SLP117 T03220072





000
SAUS46 KMFR 312357
MTRSXT
METAR KSXT 312356Z AUTO VRB03KT 3SM HZ FEW028 33/09 A3012 RMK AO2
SLP120 T03330089 10344 20283 58015





000
SAUS46 KMFR 312357
MTRSXT
METAR KSXT 312356Z AUTO VRB03KT 3SM HZ FEW028 33/09 A3012 RMK AO2
SLP120 T03330089 10344 20283 58015





000
SAUS46 KMFR 312347
MTRSXT
SPECI KSXT 312345Z AUTO VRB06KT 3SM HZ FEW028 33/09 A3013 RMK AO2
T03330089





000
SAUS46 KMFR 312335
MTRSXT
SPECI KSXT 312334Z AUTO VRB05KT 3SM HZ BKN028 34/10 A3013 RMK AO2
T03390100





000
SAUS46 KMFR 312335
MTRSXT
SPECI KSXT 312334Z AUTO VRB05KT 3SM HZ BKN028 34/10 A3013 RMK AO2
T03390100





000
SAUS46 KMFR 312330
MTRSXT
SPECI KSXT 312329Z AUTO 2 1/2SM HZ BKN030 34/09 A3013 RMK AO2
T03390094





000
SAUS46 KMFR 312330
MTRSXT
SPECI KSXT 312329Z AUTO 2 1/2SM HZ BKN030 34/09 A3013 RMK AO2
T03390094





000
SAUS46 KMFR 312321
MTRSXT
SPECI KSXT 312320Z AUTO 00000KT 2 1/2SM HZ BKN028 34/09 A3013 RMK
AO2 T03390094





000
SAUS46 KMFR 312321
MTRSXT
SPECI KSXT 312320Z AUTO 00000KT 2 1/2SM HZ BKN028 34/09 A3013 RMK
AO2 T03390094





000
SAUS46 KMFR 312257
MTRSXT
METAR KSXT 312256Z AUTO 00000KT 2 1/2SM HZ SCT025 34/09 A3014 RMK
AO2 SLP125 T03390089





000
SAUS46 KMFR 312257
MTRSXT
METAR KSXT 312256Z AUTO 00000KT 2 1/2SM HZ SCT025 34/09 A3014 RMK
AO2 SLP125 T03390089





000
SAUS46 KMFR 312209
MTRSXT
SPECI KSXT 312207Z AUTO VRB05KT 2SM HZ CLR 32/10 A3017 RMK AO2
T03220100





000
SAUS46 KMFR 312158
MTRSXT
METAR KSXT 312156Z AUTO VRB05KT 1 3/4SM HZ CLR 33/09 A3017 RMK AO2
SLP137 T03280089





000
SAUS46 KMFR 312146
MTRSXT
SPECI KSXT 312145Z AUTO VRB04KT 2SM HZ FEW016 33/09 A3018 RMK AO2
T03280094





000
SAUS46 KMFR 312136
MTRSXT
SPECI KSXT 312134Z AUTO 36005KT 1 3/4SM HZ FEW016 32/09 A3018 RMK
AO2 T03220094





000
SAUS46 KMFR 312124
MTRSXT
SPECI KSXT 312123Z AUTO VRB05KT 1 1/2SM HZ BKN016 33/09 A3019 RMK
AO2 T03280089





000
SAUS46 KMFR 312118
MTRSXT
SPECI KSXT 312117Z AUTO VRB05KT 1 1/2SM HZ BKN014 32/08 A3019 RMK
AO2 T03170078





000
SAUS46 KMFR 312058
MTRSXT
METAR KSXT 312056Z AUTO 01005KT 1 1/4SM HZ OVC013 31/08 A3019 RMK
AO2 SLP145 T03110078 56005





000
SAUS46 KMFR 312054
MTRSXT
SPECI KSXT 312052Z AUTO VRB05KT 1 1/4SM HZ OVC013 32/08 A3019 RMK
AO2





000
SAUS46 KMFR 312046
MTRSXT
SPECI KSXT 312045Z AUTO 36005KT 3/4SM HZ VV014 32/10 A3019 RMK AO2
T03170100





000
SAUS46 KMFR 312046
MTRSXT
SPECI KSXT 312045Z AUTO 36005KT 3/4SM HZ VV014 32/10 A3019 RMK AO2
T03170100





000
SAUS46 KMFR 312034
MTRSXT
SPECI KSXT 312033Z AUTO 00000KT 3/4SM HZ VV015 31/10 A3019 RMK AO2
T03110100





000
SAUS46 KMFR 312020
MTRSXT
SPECI KSXT 312019Z AUTO 00000KT 1 1/4SM HZ BKN019 32/11 A3020 RMK
AO2 T03220111





000
SAUS46 KMFR 311957
MTRSXT
METAR KSXT 311956Z AUTO VRB03KT 1 1/2SM HZ FEW014 32/10 A3020 RMK
AO2 SLP149 T03170100





000
SAUS46 KMFR 311957
MTRSXT
METAR KSXT 311956Z AUTO VRB03KT 1 1/2SM HZ FEW014 32/10 A3020 RMK
AO2 SLP149 T03170100





000
SAUS46 KMFR 311952
MTRSXT
SPECI KSXT 311951Z AUTO 00000KT 1 1/4SM HZ FEW009 SCT012 31/10 A3020
RMK AO2





000
SAUS46 KMFR 311952
MTRSXT
SPECI KSXT 311951Z AUTO 00000KT 1 1/4SM HZ FEW009 SCT012 31/10 A3020
RMK AO2





000
SAUS46 KMFR 311945
MTRSXT
SPECI KSXT 311944Z AUTO VRB03KT 1SM HZ VV012 31/09 A3020 RMK AO2
T03060094





000
SAUS46 KMFR 311858
MTRSXT
METAR KSXT 311856Z AUTO 00000KT 1/2SM HZ VV011 30/11 A3021 RMK AO2
SLP154 T03000111





000
SAUS46 KMFR 311858
MTRSXT
METAR KSXT 311856Z AUTO 00000KT 1/2SM HZ VV011 30/11 A3021 RMK AO2
SLP154 T03000111





000
SAUS46 KMFR 311841
MTRSXT
SPECI KSXT 311839Z AUTO 00000KT 1/4SM HZ VV011 28/09 A3021 RMK AO2
T02830094





000
SAUS46 KMFR 311826
MTRSXT
SPECI KSXT 311825Z AUTO 00000KT 1/4SM HZ VV009 28/09 A3021 RMK AO2
T02830094





000
SAUS46 KMFR 311826
MTRSXT
SPECI KSXT 311825Z AUTO 00000KT 1/4SM HZ VV009 28/09 A3021 RMK AO2
T02830094





000
SAUS46 KMFR 311818
MTRSXT
SPECI KSXT 311817Z AUTO VRB03KT 1/2SM HZ VV008 28/09 A3021 RMK AO2
T02830089





000
SAUS46 KMFR 311818
MTRSXT
SPECI KSXT 311817Z AUTO VRB03KT 1/2SM HZ VV008 28/09 A3021 RMK AO2
T02830089





000
SAUS46 KMFR 311808
MTRSXT
SPECI KSXT 311807Z AUTO 00000KT 1/4SM HZ OVC006 28/10 A3021 RMK AO2
T02830100





000
SAUS46 KMFR 311808
MTRSXT
SPECI KSXT 311807Z AUTO 00000KT 1/4SM HZ OVC006 28/10 A3021 RMK AO2
T02830100





000
SAUS46 KMFR 311757
MTRSXT
METAR KSXT 311756Z AUTO 00000KT 1/2SM HZ OVC006 29/09 A3021 RMK AO2
SLP158 T02890094 10294 20239 55000





000
SAUS46 KMFR 311748
MTRSXT
SPECI KSXT 311747Z AUTO 00000KT 1/2SM HZ OVC007 29/11 A3021 RMK AO2
T02890106





000
SAUS46 KMFR 311657
MTRSXT
METAR KSXT 311656Z AUTO 00000KT 1SM HZ VV007 28/09 A3021 RMK AO2
SLP159 T02780094





000
SAUS46 KMFR 311647
MTRSXT
SPECI KSXT 311646Z AUTO 00000KT 1SM HZ VV006 28/11 A3021 RMK AO2
T02830106





000
SAUS46 KMFR 311640
MTRSXT
SPECI KSXT 311639Z AUTO 00000KT 3/4SM HZ VV006 28/10 A3021 RMK AO2
T02830100





000
SAUS46 KMFR 311557
MTRSXT
METAR KSXT 311556Z AUTO 00000KT 1 1/4SM HZ OVC007 27/09 A3021 RMK
AO2 SLP160 T02670094





000
SAUS46 KMFR 311557
MTRSXT
METAR KSXT 311556Z AUTO 00000KT 1 1/4SM HZ OVC007 27/09 A3021 RMK
AO2 SLP160 T02670094





000
SAUS46 KMFR 311554
MTRSXT
SPECI KSXT 311553Z AUTO 00000KT 1 1/2SM HZ OVC007 27/09 A3021 RMK
AO2





000
SAUS46 KMFR 311457
MTRSXT
METAR KSXT 311456Z AUTO 13004KT 1 1/4SM HZ OVC007 25/07 A3021 RMK
AO2 SLP158 T02500072 53005





000
SAUS46 KMFR 311457
MTRSXT
METAR KSXT 311456Z AUTO 13004KT 1 1/4SM HZ OVC007 25/07 A3021 RMK
AO2 SLP158 T02500072 53005





000
SAUS46 KMFR 311449
MTRSXT
SPECI KSXT 311448Z AUTO 14003KT 3/4SM HZ BKN008 OVC019 25/07 A3021
RMK AO2 T02500067





000
SAUS46 KMFR 311446
MTRSXT
SPECI KSXT 311445Z AUTO 13004KT 1SM HZ BKN010 OVC019 25/07 A3021 RMK
AO2 T02500067





000
SAUS46 KMFR 311433
MTRSXT
SPECI KSXT 311432Z AUTO 14004KT 3/4SM HZ BKN014 OVC019 24/07 A3020
RMK AO2 T02440067





000
SAUS46 KMFR 311428
MTRSXT
SPECI KSXT 311427Z AUTO 14004KT 1SM HZ VV016 24/07 A3020 RMK AO2
T02390067





000
SAUS46 KMFR 311428
MTRSXT
SPECI KSXT 311427Z AUTO 14004KT 1SM HZ VV016 24/07 A3020 RMK AO2
T02390067





000
SAUS46 KMFR 311420
MTRSXT
SPECI KSXT 311419Z AUTO 14004KT 3/4SM HZ BKN011 OVC018 24/07 A3021
RMK AO2 T02390067





000
SAUS46 KMFR 311420
MTRSXT
SPECI KSXT 311419Z AUTO 14004KT 3/4SM HZ BKN011 OVC018 24/07 A3021
RMK AO2 T02390067





000
SAUS46 KMFR 311400
MTRMHS
METAR KMHS 311356Z AUTO 05003KT 10SM CLR 16/08 A3018 RMK AO2 SLP205
T01610083





000
SAUS46 KMFR 311358
MTRSXT
METAR KSXT 311356Z AUTO 14004KT 3/4SM HZ BKN007 OVC018 24/07 A3020
RMK AO2 SLP153 T02390067





000
SAUS46 KMFR 311353
MTRSXT
SPECI KSXT 311352Z AUTO 13004KT 1/2SM HZ BKN009 OVC018 24/07 A3020
RMK AO2





000
SAUS46 KMFR 311321
MTRSXT
SPECI KSXT 311320Z AUTO 13006KT 3/4SM HZ OVC017 24/06 A3019 RMK AO2
T02390061





000
SAUS46 KMFR 311321
MTRSXT
SPECI KSXT 311320Z AUTO 13006KT 3/4SM HZ OVC017 24/06 A3019 RMK AO2
T02390061





000
SAUS46 KMFR 311316
MTRSXT
SPECI KSXT 311315Z AUTO 13005KT 1 3/4SM HZ OVC016 24/06 A3019 RMK
AO2 T02440061





000
SAUS46 KMFR 311257
MTRSXT
METAR KSXT 311256Z AUTO 13004KT 9SM OVC016 25/06 A3019 RMK AO2
SLP144 T02500061





000
SAUS46 KMFR 311231
MTRSXT
SPECI KSXT 311230Z AUTO 14003KT 3SM HZ FEW007 OVC015 26/05 A3019 RMK
AO2 T02560050





000
SAUS46 KMFR 311231
MTRSXT
SPECI KSXT 311230Z AUTO 14003KT 3SM HZ FEW007 OVC015 26/05 A3019 RMK
AO2 T02560050





000
SAUS46 KMFR 311218
MTRSXT
SPECI KSXT 311217Z AUTO 13003KT 1 1/2SM HZ SCT006 OVC015 26/05 A3019
RMK AO2 T02560050





000
SAUS46 KMFR 311218
MTRSXT
SPECI KSXT 311217Z AUTO 13003KT 1 1/2SM HZ SCT006 OVC015 26/05 A3019
RMK AO2 T02560050





000
SAUS46 KMFR 311157
MTRSXT
METAR KSXT 311156Z AUTO 00000KT 1SM HZ OVC005 26/04 A3019 RMK AO2
SLP143 T02560044 10267 20239 56003





000
SAUS46 KMFR 311157
MTRSXT
METAR KSXT 311156Z AUTO 00000KT 1SM HZ OVC005 26/04 A3019 RMK AO2
SLP143 T02560044 10267 20239 56003





000
SAUS46 KMFR 311154
MTRSXT
SPECI KSXT 311153Z AUTO 12003KT 1SM HZ OVC005 26/04 A3019 RMK AO2





000
SAUS46 KMFR 311154
MTRSXT
SPECI KSXT 311153Z AUTO 12003KT 1SM HZ OVC005 26/04 A3019 RMK AO2





000
SAUS46 KMFR 311147
MTRSXT
SPECI KSXT 311146Z AUTO 11003KT 1SM HZ SCT005 OVC010 26/04 A3019 RMK
AO2 T02560044





000
SAUS46 KMFR 311120
MTRSXT
SPECI KSXT 311119Z AUTO 06003KT 3/4SM HZ FEW007 BKN012 OVC018 26/04
A3019 RMK AO2 T02610039





000
SAUS46 KMFR 311058
MTRSXT
METAR KSXT 311056Z AUTO 00000KT 3/4SM HZ VV007 26/04 A3020 RMK AO2
SLP143 T02610039





000
SAUS46 KMFR 311058
MTRSXT
METAR KSXT 311056Z AUTO 00000KT 3/4SM HZ VV007 26/04 A3020 RMK AO2
SLP143 T02610039





000
SAUS46 KMFR 311050
MTRSXT
SPECI KSXT 311049Z AUTO 00000KT 1 1/4SM HZ OVC006 27/04 A3020 RMK
AO2 T02670044





000
SAUS46 KMFR 311050
MTRSXT
SPECI KSXT 311049Z AUTO 00000KT 1 1/4SM HZ OVC006 27/04 A3020 RMK
AO2 T02670044





000
SAUS46 KMFR 311027
MTRSXT
SPECI KSXT 311026Z AUTO 00000KT 3/4SM HZ VV005 26/04 A3020 RMK AO2
T02610044





000
SAUS46 KMFR 311027
MTRSXT
SPECI KSXT 311026Z AUTO 00000KT 3/4SM HZ VV005 26/04 A3020 RMK AO2
T02610044





000
SAUS46 KMFR 311019
MTRSXT
SPECI KSXT 311018Z AUTO 00000KT 1 3/4SM HZ BKN005 26/04 A3020 RMK
AO2 T02610044





000
SAUS46 KMFR 311019
MTRSXT
SPECI KSXT 311018Z AUTO 00000KT 1 3/4SM HZ BKN005 26/04 A3020 RMK
AO2 T02610044





000
SAUS46 KMFR 311014
MTRSXT
SPECI KSXT 311013Z AUTO 14003KT 2 1/2SM HZ SCT005 26/04 A3020 RMK
AO2 T02610044





000
SAUS46 KMFR 310957
MTRSXT
METAR KSXT 310956Z AUTO 17004KT 10SM CLR 26/06 A3020 RMK AO2 SLP145
T02560061





000
SAUS46 KMFR 310857
MTRSXT
METAR KSXT 310856Z AUTO 00000KT 10SM CLR 26/05 A3020 RMK AO2 SLP147
T02610050 58001





000
SAUS46 KMFR 310857
MTRSXT
METAR KSXT 310856Z AUTO 00000KT 10SM CLR 26/05 A3020 RMK AO2 SLP147
T02610050 58001





    US Dept of Commerce
    National Oceanic and Atmospheric Administration
    National Weather Service
    1325 East West Highway
    Silver Spring, MD 20910
    Page Author: NWS Internet Services Team
Disclaimer
Information Quality
Credits
Glossary
Privacy Policy
Freedom of Information Act (FOIA)
About Us
Career Opportunities